sensor_id;sensor_type;location;lat;lon;timestamp;temperature;humidity
57026;DHT22;43961;52.940;6.834;2024-03-02T00:00:14;6.40;99.90
57026;DHT22;43961;52.940;6.834;2024-03-02T00:02:41;6.40;99.90
57026;DHT22;43961;52.940;6.834;2024-03-02T00:05:07;6.30;99.90
57026;DHT22;43961;52.940;6.834;2024-03-02T00:07:33;6.30;99.90
57026;DHT22;43961;52.940;6.834;2024-03-02T00:10:00;6.30;99.90
57026;DHT22;43961;52.940;6.834;2024-03-02T00:12:26;6.30;99.90
57026;DHT22;43961;52.940;6.834;2024-03-02T00:14:51;6.40;99.90
57026;DHT22;43961;52.940;6.834;2024-03-02T00:17:26;6.40;99.90
57026;DHT22;43961;52.940;6.834;2024-03-02T00:19:52;6.40;99.90
57026;DHT22;43961;52.940;6.834;2024-03-02T00:22:18;6.40;99.90
57026;DHT22;43961;52.940;6.834;2024-03-02T00:24:43;6.30;99.90
57026;DHT22;43961;52.940;6.834;2024-03-02T00:27:13;6.40;99.90
57026;DHT22;43961;52.940;6.834;2024-03-02T00:29:40;6.40;99.90
57026;DHT22;43961;52.940;6.834;2024-03-02T00:32:13;6.40;99.90
57026;DHT22;43961;52.940;6.834;2024-03-02T00:34:41;6.40;99.90
57026;DHT22;43961;52.940;6.834;2024-03-02T00:37:06;6.40;99.90
57026;DHT22;43961;52.940;6.834;2024-03-02T00:39:33;6.40;99.90
57026;DHT22;43961;52.940;6.834;2024-03-02T00:41:59;6.40;99.90
57026;DHT22;43961;52.940;6.834;2024-03-02T00:44:25;6.50;99.90
57026;DHT22;43961;52.940;6.834;2024-03-02T00:46:59;6.50;99.90
57026;DHT22;43961;52.940;6.834;2024-03-02T00:49:25;6.50;99.90
57026;DHT22;43961;52.940;6.834;2024-03-02T00:51:53;6.50;99.90
57026;DHT22;43961;52.940;6.834;2024-03-02T00:54:25;6.60;99.90
57026;DHT22;43961;52.940;6.834;2024-03-02T00:56:52;6.60;99.90
57026;DHT22;43961;52.940;6.834;2024-03-02T00:59:20;6.60;99.90
57026;DHT22;43961;52.940;6.834;2024-03-02T01:01:47;6.60;99.90
57026;DHT22;43961;52.940;6.834;2024-03-02T01:04:13;6.60;99.90
57026;DHT22;43961;52.940;6.834;2024-03-02T01:06:39;6.60;99.90
57026;DHT22;43961;52.940;6.834;2024-03-02T01:09:05;6.70;99.90
57026;DHT22;43961;52.940;6.834;2024-03-02T01:11:31;6.70;99.90
57026;DHT22;43961;52.940;6.834;2024-03-02T01:13:57;6.80;99.90
57026;DHT22;43961;52.940;6.834;2024-03-02T01:16:22;6.80;99.90
57026;DHT22;43961;52.940;6.834;2024-03-02T01:18:48;6.80;99.90
57026;DHT22;43961;52.940;6.834;2024-03-02T01:21:14;6.80;99.90
57026;DHT22;43961;52.940;6.834;2024-03-02T01:23:40;6.80;99.90
57026;DHT22;43961;52.940;6.834;2024-03-02T01:26:05;6.90;99.90
57026;DHT22;43961;52.940;6.834;2024-03-02T01:28:32;6.90;99.90
57026;DHT22;43961;52.940;6.834;2024-03-02T01:30:57;6.90;99.90
57026;DHT22;43961;52.940;6.834;2024-03-02T01:33:23;6.90;99.90
57026;DHT22;43961;52.940;6.834;2024-03-02T01:35:48;6.90;99.90
57026;DHT22;43961;52.940;6.834;2024-03-02T01:38:14;6.90;99.90
57026;DHT22;43961;52.940;6.834;2024-03-02T01:40:40;7.00;99.90
57026;DHT22;43961;52.940;6.834;2024-03-02T01:43:06;7.00;99.90
57026;DHT22;43961;52.940;6.834;2024-03-02T01:45:33;7.00;99.90
57026;DHT22;43961;52.940;6.834;2024-03-02T01:48:00;7.00;99.90
57026;DHT22;43961;52.940;6.834;2024-03-02T01:50:33;7.00;99.90
57026;DHT22;43961;52.940;6.834;2024-03-02T01:52:59;7.10;99.90
57026;DHT22;43961;52.940;6.834;2024-03-02T01:55:26;7.10;99.90
57026;DHT22;43961;52.940;6.834;2024-03-02T01:57:52;7.10;99.90
57026;DHT22;43961;52.940;6.834;2024-03-02T02:00:21;7.10;99.90
57026;DHT22;43961;52.940;6.834;2024-03-02T02:02:48;7.20;99.90
57026;DHT22;43961;52.940;6.834;2024-03-02T02:05:14;7.20;99.90
57026;DHT22;43961;52.940;6.834;2024-03-02T02:07:41;7.20;99.90
57026;DHT22;43961;52.940;6.834;2024-03-02T02:10:08;7.20;99.90
57026;DHT22;43961;52.940;6.834;2024-03-02T02:12:34;7.20;99.90
57026;DHT22;43961;52.940;6.834;2024-03-02T02:15:00;7.20;99.90
57026;DHT22;43961;52.940;6.834;2024-03-02T02:17:26;7.20;99.90
57026;DHT22;43961;52.940;6.834;2024-03-02T02:19:51;7.20;99.90
57026;DHT22;43961;52.940;6.834;2024-03-02T02:22:17;7.20;99.90
57026;DHT22;43961;52.940;6.834;2024-03-02T02:24:43;7.20;99.90
57026;DHT22;43961;52.940;6.834;2024-03-02T02:27:09;7.20;99.90
57026;DHT22;43961;52.940;6.834;2024-03-02T02:29:41;7.20;99.90
57026;DHT22;43961;52.940;6.834;2024-03-02T02:32:06;7.30;99.90
57026;DHT22;43961;52.940;6.834;2024-03-02T02:34:32;7.30;99.90
57026;DHT22;43961;52.940;6.834;2024-03-02T02:36:58;7.30;99.90
57026;DHT22;43961;52.940;6.834;2024-03-02T02:39:24;7.30;99.90
57026;DHT22;43961;52.940;6.834;2024-03-02T02:41:50;7.40;99.90
57026;DHT22;43961;52.940;6.834;2024-03-02T02:44:16;7.40;99.90
57026;DHT22;43961;52.940;6.834;2024-03-02T02:46:41;7.40;99.90
57026;DHT22;43961;52.940;6.834;2024-03-02T02:49:07;7.50;99.90
57026;DHT22;43961;52.940;6.834;2024-03-02T02:51:33;7.50;99.90
57026;DHT22;43961;52.940;6.834;2024-03-02T02:53:58;7.50;99.90
57026;DHT22;43961;52.940;6.834;2024-03-02T02:56:24;7.60;99.90
57026;DHT22;43961;52.940;6.834;2024-03-02T02:58:50;7.60;99.90
57026;DHT22;43961;52.940;6.834;2024-03-02T03:01:16;7.60;99.90
57026;DHT22;43961;52.940;6.834;2024-03-02T03:03:45;7.60;99.90
57026;DHT22;43961;52.940;6.834;2024-03-02T03:06:11;7.60;99.90
57026;DHT22;43961;52.940;6.834;2024-03-02T03:08:37;7.70;99.90
57026;DHT22;43961;52.940;6.834;2024-03-02T03:11:03;7.70;99.90
57026;DHT22;43961;52.940;6.834;2024-03-02T03:13:30;7.70;99.90
57026;DHT22;43961;52.940;6.834;2024-03-02T03:15:56;7.70;99.90
57026;DHT22;43961;52.940;6.834;2024-03-02T03:18:21;7.80;99.90
57026;DHT22;43961;52.940;6.834;2024-03-02T03:20:47;7.80;99.90
57026;DHT22;43961;52.940;6.834;2024-03-02T03:23:13;7.80;99.90
57026;DHT22;43961;52.940;6.834;2024-03-02T03:25:41;7.90;99.90
57026;DHT22;43961;52.940;6.834;2024-03-02T03:28:08;7.90;99.90
57026;DHT22;43961;52.940;6.834;2024-03-02T03:30:37;7.90;99.90
57026;DHT22;43961;52.940;6.834;2024-03-02T03:33:03;7.90;99.90
57026;DHT22;43961;52.940;6.834;2024-03-02T03:35:29;8.00;99.90
57026;DHT22;43961;52.940;6.834;2024-03-02T03:37:54;8.00;99.90
57026;DHT22;43961;52.940;6.834;2024-03-02T03:40:20;8.00;99.90
57026;DHT22;43961;52.940;6.834;2024-03-02T03:42:45;8.00;99.90
57026;DHT22;43961;52.940;6.834;2024-03-02T03:45:11;8.00;99.90
57026;DHT22;43961;52.940;6.834;2024-03-02T03:47:37;8.00;99.90
57026;DHT22;43961;52.940;6.834;2024-03-02T03:50:02;8.00;99.90
57026;DHT22;43961;52.940;6.834;2024-03-02T03:52:32;8.00;99.90
57026;DHT22;43961;52.940;6.834;2024-03-02T03:54:58;7.90;99.90
57026;DHT22;43961;52.940;6.834;2024-03-02T03:57:23;7.90;99.90
57026;DHT22;43961;52.940;6.834;2024-03-02T03:59:49;7.80;99.90
57026;DHT22;43961;52.940;6.834;2024-03-02T04:02:15;7.80;99.90
57026;DHT22;43961;52.940;6.834;2024-03-02T04:04:40;7.70;99.90
57026;DHT22;43961;52.940;6.834;2024-03-02T04:07:06;7.70;99.90
57026;DHT22;43961;52.940;6.834;2024-03-02T04:09:31;7.70;99.90
57026;DHT22;43961;52.940;6.834;2024-03-02T04:11:58;7.60;99.90
57026;DHT22;43961;52.940;6.834;2024-03-02T04:14:23;7.60;99.90
57026;DHT22;43961;52.940;6.834;2024-03-02T04:16:49;7.60;99.90
57026;DHT22;43961;52.940;6.834;2024-03-02T04:19:14;7.60;99.90
57026;DHT22;43961;52.940;6.834;2024-03-02T04:21:40;7.60;99.90
57026;DHT22;43961;52.940;6.834;2024-03-02T04:24:06;7.60;99.90
57026;DHT22;43961;52.940;6.834;2024-03-02T04:26:31;7.60;99.90
57026;DHT22;43961;52.940;6.834;2024-03-02T04:28:57;7.60;99.90
57026;DHT22;43961;52.940;6.834;2024-03-02T04:31:22;7.60;99.90
57026;DHT22;43961;52.940;6.834;2024-03-02T04:33:48;7.50;99.90
57026;DHT22;43961;52.940;6.834;2024-03-02T04:36:14;7.50;99.90
57026;DHT22;43961;52.940;6.834;2024-03-02T04:38:39;7.50;99.90
57026;DHT22;43961;52.940;6.834;2024-03-02T04:41:05;7.50;99.90
57026;DHT22;43961;52.940;6.834;2024-03-02T04:43:32;7.50;99.90
57026;DHT22;43961;52.940;6.834;2024-03-02T04:45:58;7.50;99.90
57026;DHT22;43961;52.940;6.834;2024-03-02T04:48:24;7.50;99.90
57026;DHT22;43961;52.940;6.834;2024-03-02T04:50:50;7.50;99.90
57026;DHT22;43961;52.940;6.834;2024-03-02T04:53:16;7.50;99.90
57026;DHT22;43961;52.940;6.834;2024-03-02T04:55:41;7.50;99.90
57026;DHT22;43961;52.940;6.834;2024-03-02T04:58:07;7.50;99.90
57026;DHT22;43961;52.940;6.834;2024-03-02T05:00:34;7.50;99.90
57026;DHT22;43961;52.940;6.834;2024-03-02T05:02:59;7.50;99.90
57026;DHT22;43961;52.940;6.834;2024-03-02T05:05:25;7.50;99.90
57026;DHT22;43961;52.940;6.834;2024-03-02T05:07:51;7.50;99.90
57026;DHT22;43961;52.940;6.834;2024-03-02T05:10:17;7.50;99.90
57026;DHT22;43961;52.940;6.834;2024-03-02T05:12:43;7.50;99.90
57026;DHT22;43961;52.940;6.834;2024-03-02T05:15:13;7.50;99.90
57026;DHT22;43961;52.940;6.834;2024-03-02T05:17:42;7.50;99.90
57026;DHT22;43961;52.940;6.834;2024-03-02T05:20:11;7.50;99.90
57026;DHT22;43961;52.940;6.834;2024-03-02T05:22:38;7.40;99.90
57026;DHT22;43961;52.940;6.834;2024-03-02T05:25:04;7.50;99.90
57026;DHT22;43961;52.940;6.834;2024-03-02T05:27:30;7.50;99.90
57026;DHT22;43961;52.940;6.834;2024-03-02T05:29:58;7.40;99.90
57026;DHT22;43961;52.940;6.834;2024-03-02T05:32:24;7.40;99.90
57026;DHT22;43961;52.940;6.834;2024-03-02T05:34:50;7.30;99.90
57026;DHT22;43961;52.940;6.834;2024-03-02T05:37:16;7.30;99.90
57026;DHT22;43961;52.940;6.834;2024-03-02T05:39:42;7.20;99.90
57026;DHT22;43961;52.940;6.834;2024-03-02T05:42:09;7.20;99.90
57026;DHT22;43961;52.940;6.834;2024-03-02T05:44:38;7.20;99.90
57026;DHT22;43961;52.940;6.834;2024-03-02T05:47:03;7.10;99.90
57026;DHT22;43961;52.940;6.834;2024-03-02T05:49:29;7.10;99.90
57026;DHT22;43961;52.940;6.834;2024-03-02T05:51:55;7.10;99.90
57026;DHT22;43961;52.940;6.834;2024-03-02T05:54:21;7.00;99.90
57026;DHT22;43961;52.940;6.834;2024-03-02T05:56:47;7.00;99.90
57026;DHT22;43961;52.940;6.834;2024-03-02T05:59:12;7.00;99.90
57026;DHT22;43961;52.940;6.834;2024-03-02T06:01:47;7.00;99.90
57026;DHT22;43961;52.940;6.834;2024-03-02T06:04:16;7.00;99.90
57026;DHT22;43961;52.940;6.834;2024-03-02T06:06:42;7.00;99.90
57026;DHT22;43961;52.940;6.834;2024-03-02T06:09:08;7.00;99.90
57026;DHT22;43961;52.940;6.834;2024-03-02T06:11:38;7.00;99.90
57026;DHT22;43961;52.940;6.834;2024-03-02T06:14:05;7.00;99.90
57026;DHT22;43961;52.940;6.834;2024-03-02T06:16:31;7.00;99.90
57026;DHT22;43961;52.940;6.834;2024-03-02T06:18:57;6.90;99.90
57026;DHT22;43961;52.940;6.834;2024-03-02T06:21:27;6.90;99.90
57026;DHT22;43961;52.940;6.834;2024-03-02T06:23:54;6.90;99.90
57026;DHT22;43961;52.940;6.834;2024-03-02T06:26:19;6.90;99.90
57026;DHT22;43961;52.940;6.834;2024-03-02T06:28:45;6.80;99.90
57026;DHT22;43961;52.940;6.834;2024-03-02T06:31:11;6.80;99.90
57026;DHT22;43961;52.940;6.834;2024-03-02T06:33:37;6.80;99.90
57026;DHT22;43961;52.940;6.834;2024-03-02T06:36:04;6.80;99.90
57026;DHT22;43961;52.940;6.834;2024-03-02T06:38:29;6.80;99.90
57026;DHT22;43961;52.940;6.834;2024-03-02T06:40:57;6.70;99.90
57026;DHT22;43961;52.940;6.834;2024-03-02T06:43:23;6.70;99.90
57026;DHT22;43961;52.940;6.834;2024-03-02T06:45:52;6.70;99.90
57026;DHT22;43961;52.940;6.834;2024-03-02T06:48:18;6.70;99.90
57026;DHT22;43961;52.940;6.834;2024-03-02T06:50:49;6.70;99.90
57026;DHT22;43961;52.940;6.834;2024-03-02T06:53:15;6.70;99.90
57026;DHT22;43961;52.940;6.834;2024-03-02T06:55:45;6.70;99.90
57026;DHT22;43961;52.940;6.834;2024-03-02T06:58:14;6.70;99.90
57026;DHT22;43961;52.940;6.834;2024-03-02T07:00:42;6.70;99.90
57026;DHT22;43961;52.940;6.834;2024-03-02T07:03:08;6.70;99.90
57026;DHT22;43961;52.940;6.834;2024-03-02T07:05:33;6.70;99.90
57026;DHT22;43961;52.940;6.834;2024-03-02T07:07:59;6.70;99.90
57026;DHT22;43961;52.940;6.834;2024-03-02T07:10:25;6.80;99.90
57026;DHT22;43961;52.940;6.834;2024-03-02T07:12:50;6.80;99.90
57026;DHT22;43961;52.940;6.834;2024-03-02T07:15:16;6.80;99.90
57026;DHT22;43961;52.940;6.834;2024-03-02T07:17:54;6.80;99.90
57026;DHT22;43961;52.940;6.834;2024-03-02T07:20:19;6.90;99.90
57026;DHT22;43961;52.940;6.834;2024-03-02T07:22:45;6.90;99.90
57026;DHT22;43961;52.940;6.834;2024-03-02T07:25:11;6.90;99.90
57026;DHT22;43961;52.940;6.834;2024-03-02T07:27:36;7.00;99.90
57026;DHT22;43961;52.940;6.834;2024-03-02T07:30:03;7.00;99.90
57026;DHT22;43961;52.940;6.834;2024-03-02T07:32:28;7.10;99.90
57026;DHT22;43961;52.940;6.834;2024-03-02T07:34:54;7.10;99.90
57026;DHT22;43961;52.940;6.834;2024-03-02T07:37:21;7.10;99.90
57026;DHT22;43961;52.940;6.834;2024-03-02T07:39:47;7.20;99.90
57026;DHT22;43961;52.940;6.834;2024-03-02T07:42:13;7.20;99.90
57026;DHT22;43961;52.940;6.834;2024-03-02T07:44:38;7.30;99.90
57026;DHT22;43961;52.940;6.834;2024-03-02T07:47:04;7.30;99.90
57026;DHT22;43961;52.940;6.834;2024-03-02T07:49:30;7.40;99.90
57026;DHT22;43961;52.940;6.834;2024-03-02T07:51:55;7.40;99.90
57026;DHT22;43961;52.940;6.834;2024-03-02T07:54:21;7.40;99.90
57026;DHT22;43961;52.940;6.834;2024-03-02T07:56:47;7.40;99.90
57026;DHT22;43961;52.940;6.834;2024-03-02T07:59:14;7.50;99.90
57026;DHT22;43961;52.940;6.834;2024-03-02T08:01:39;7.50;99.90
57026;DHT22;43961;52.940;6.834;2024-03-02T08:04:05;7.50;99.90
57026;DHT22;43961;52.940;6.834;2024-03-02T08:06:31;7.50;99.90
57026;DHT22;43961;52.940;6.834;2024-03-02T08:08:58;7.50;99.90
57026;DHT22;43961;52.940;6.834;2024-03-02T08:11:24;7.50;99.90
57026;DHT22;43961;52.940;6.834;2024-03-02T08:13:50;7.50;99.90
57026;DHT22;43961;52.940;6.834;2024-03-02T08:16:17;7.50;99.90
57026;DHT22;43961;52.940;6.834;2024-03-02T08:18:47;7.60;99.90
57026;DHT22;43961;52.940;6.834;2024-03-02T08:21:13;7.60;99.90
57026;DHT22;43961;52.940;6.834;2024-03-02T08:23:38;7.60;99.90
57026;DHT22;43961;52.940;6.834;2024-03-02T08:26:06;7.70;99.90
57026;DHT22;43961;52.940;6.834;2024-03-02T08:28:32;7.70;99.90
57026;DHT22;43961;52.940;6.834;2024-03-02T08:30:58;7.80;99.90
57026;DHT22;43961;52.940;6.834;2024-03-02T08:33:24;7.80;99.90
57026;DHT22;43961;52.940;6.834;2024-03-02T08:35:50;7.80;99.90
57026;DHT22;43961;52.940;6.834;2024-03-02T08:38:15;7.90;99.90
57026;DHT22;43961;52.940;6.834;2024-03-02T08:40:41;7.90;99.90
57026;DHT22;43961;52.940;6.834;2024-03-02T08:43:07;7.90;99.90
57026;DHT22;43961;52.940;6.834;2024-03-02T08:45:33;8.00;99.90
57026;DHT22;43961;52.940;6.834;2024-03-02T08:48:00;8.00;99.90
57026;DHT22;43961;52.940;6.834;2024-03-02T08:50:25;8.00;99.90
57026;DHT22;43961;52.940;6.834;2024-03-02T08:52:51;8.20;99.90
57026;DHT22;43961;52.940;6.834;2024-03-02T08:55:17;8.20;99.90
57026;DHT22;43961;52.940;6.834;2024-03-02T08:57:42;8.30;99.90
57026;DHT22;43961;52.940;6.834;2024-03-02T09:00:09;8.40;99.90
57026;DHT22;43961;52.940;6.834;2024-03-02T09:02:34;8.50;99.90
57026;DHT22;43961;52.940;6.834;2024-03-02T09:05:01;8.60;99.90
57026;DHT22;43961;52.940;6.834;2024-03-02T09:07:26;8.60;99.90
57026;DHT22;43961;52.940;6.834;2024-03-02T09:09:52;8.70;99.90
57026;DHT22;43961;52.940;6.834;2024-03-02T09:12:18;8.80;99.90
57026;DHT22;43961;52.940;6.834;2024-03-02T09:14:44;9.00;99.90
57026;DHT22;43961;52.940;6.834;2024-03-02T09:17:10;9.10;99.90
57026;DHT22;43961;52.940;6.834;2024-03-02T09:19:37;9.20;99.90
57026;DHT22;43961;52.940;6.834;2024-03-02T09:22:02;9.40;99.90
57026;DHT22;43961;52.940;6.834;2024-03-02T09:24:31;9.50;99.90
57026;DHT22;43961;52.940;6.834;2024-03-02T09:26:57;9.70;99.90
57026;DHT22;43961;52.940;6.834;2024-03-02T09:29:22;9.80;99.90
57026;DHT22;43961;52.940;6.834;2024-03-02T09:31:48;9.90;99.90
57026;DHT22;43961;52.940;6.834;2024-03-02T09:34:15;10.00;99.90
57026;DHT22;43961;52.940;6.834;2024-03-02T09:36:41;10.10;99.90
57026;DHT22;43961;52.940;6.834;2024-03-02T09:39:11;10.20;99.90
57026;DHT22;43961;52.940;6.834;2024-03-02T09:41:37;10.30;99.90
57026;DHT22;43961;52.940;6.834;2024-03-02T09:44:03;10.40;99.90
57026;DHT22;43961;52.940;6.834;2024-03-02T09:46:28;10.50;99.90
57026;DHT22;43961;52.940;6.834;2024-03-02T09:48:54;10.60;99.90
57026;DHT22;43961;52.940;6.834;2024-03-02T09:51:20;10.60;99.90
57026;DHT22;43961;52.940;6.834;2024-03-02T09:53:46;10.70;99.90
57026;DHT22;43961;52.940;6.834;2024-03-02T09:56:13;10.70;99.90
57026;DHT22;43961;52.940;6.834;2024-03-02T09:58:39;10.80;99.90
57026;DHT22;43961;52.940;6.834;2024-03-02T10:01:08;10.80;99.90
57026;DHT22;43961;52.940;6.834;2024-03-02T10:03:36;10.90;99.90
57026;DHT22;43961;52.940;6.834;2024-03-02T10:06:24;11.00;99.90
57026;DHT22;43961;52.940;6.834;2024-03-02T10:08:51;11.20;99.90
57026;DHT22;43961;52.940;6.834;2024-03-02T10:11:35;11.30;99.90
57026;DHT22;43961;52.940;6.834;2024-03-02T10:14:10;11.40;99.90
57026;DHT22;43961;52.940;6.834;2024-03-02T10:16:41;11.40;99.90
57026;DHT22;43961;52.940;6.834;2024-03-02T10:19:20;11.50;99.90
57026;DHT22;43961;52.940;6.834;2024-03-02T10:21:53;11.50;99.90
57026;DHT22;43961;52.940;6.834;2024-03-02T10:24:21;11.50;99.90
57026;DHT22;43961;52.940;6.834;2024-03-02T10:26:47;11.50;99.90
57026;DHT22;43961;52.940;6.834;2024-03-02T10:29:13;11.60;99.90
57026;DHT22;43961;52.940;6.834;2024-03-02T10:31:40;11.70;99.90
57026;DHT22;43961;52.940;6.834;2024-03-02T10:34:10;11.80;99.90
57026;DHT22;43961;52.940;6.834;2024-03-02T10:36:37;11.90;99.90
57026;DHT22;43961;52.940;6.834;2024-03-02T10:39:06;11.80;99.90
57026;DHT22;43961;52.940;6.834;2024-03-02T10:41:36;11.70;99.90
57026;DHT22;43961;52.940;6.834;2024-03-02T10:44:04;11.70;99.90
57026;DHT22;43961;52.940;6.834;2024-03-02T10:46:32;11.70;99.90
57026;DHT22;43961;52.940;6.834;2024-03-02T10:48:59;11.80;99.90
57026;DHT22;43961;52.940;6.834;2024-03-02T10:51:29;11.90;99.90
57026;DHT22;43961;52.940;6.834;2024-03-02T10:53:59;12.00;99.90
57026;DHT22;43961;52.940;6.834;2024-03-02T10:56:53;12.10;99.90
57026;DHT22;43961;52.940;6.834;2024-03-02T10:59:27;12.30;99.90
57026;DHT22;43961;52.940;6.834;2024-03-02T11:01:58;12.40;99.90
57026;DHT22;43961;52.940;6.834;2024-03-02T11:04:26;12.50;99.90
57026;DHT22;43961;52.940;6.834;2024-03-02T11:06:54;12.60;99.90
57026;DHT22;43961;52.940;6.834;2024-03-02T11:09:26;12.60;99.90
57026;DHT22;43961;52.940;6.834;2024-03-02T11:12:23;12.60;99.90
57026;DHT22;43961;52.940;6.834;2024-03-02T11:14:51;12.60;99.90
57026;DHT22;43961;52.940;6.834;2024-03-02T11:17:20;12.70;99.90
57026;DHT22;43961;52.940;6.834;2024-03-02T11:19:47;12.80;99.90
57026;DHT22;43961;52.940;6.834;2024-03-02T11:22:14;12.90;99.90
57026;DHT22;43961;52.940;6.834;2024-03-02T11:24:51;13.00;99.90
57026;DHT22;43961;52.940;6.834;2024-03-02T11:33:00;13.40;99.90
57026;DHT22;43961;52.940;6.834;2024-03-02T11:35:27;13.50;99.90
57026;DHT22;43961;52.940;6.834;2024-03-02T11:37:55;13.60;99.90
57026;DHT22;43961;52.940;6.834;2024-03-02T11:40:27;13.70;99.90
57026;DHT22;43961;52.940;6.834;2024-03-02T11:42:54;13.80;99.90
57026;DHT22;43961;52.940;6.834;2024-03-02T11:45:26;13.90;99.90
57026;DHT22;43961;52.940;6.834;2024-03-02T11:47:54;13.90;99.90
57026;DHT22;43961;52.940;6.834;2024-03-02T11:50:30;14.00;99.90
57026;DHT22;43961;52.940;6.834;2024-03-02T11:52:58;14.00;99.90
57026;DHT22;43961;52.940;6.834;2024-03-02T11:55:25;14.10;99.90
57026;DHT22;43961;52.940;6.834;2024-03-02T11:57:52;14.10;99.90
57026;DHT22;43961;52.940;6.834;2024-03-02T12:00:19;14.10;99.90
57026;DHT22;43961;52.940;6.834;2024-03-02T12:03:00;14.20;99.90
57026;DHT22;43961;52.940;6.834;2024-03-02T12:05:27;14.30;99.90
57026;DHT22;43961;52.940;6.834;2024-03-02T12:08:00;14.20;99.90
57026;DHT22;43961;52.940;6.834;2024-03-02T12:10:26;14.30;99.90
57026;DHT22;43961;52.940;6.834;2024-03-02T12:12:59;14.20;99.90
57026;DHT22;43961;52.940;6.834;2024-03-02T12:15:32;14.10;99.90
57026;DHT22;43961;52.940;6.834;2024-03-02T12:17:59;14.10;99.90
57026;DHT22;43961;52.940;6.834;2024-03-02T12:20:27;14.00;99.90
57026;DHT22;43961;52.940;6.834;2024-03-02T12:22:56;14.00;99.90
57026;DHT22;43961;52.940;6.834;2024-03-02T12:25:24;13.90;99.90
57026;DHT22;43961;52.940;6.834;2024-03-02T12:27:53;13.90;99.90
57026;DHT22;43961;52.940;6.834;2024-03-02T12:30:19;13.90;99.90
57026;DHT22;43961;52.940;6.834;2024-03-02T12:32:46;13.90;99.90
57026;DHT22;43961;52.940;6.834;2024-03-02T12:35:12;14.00;99.90
57026;DHT22;43961;52.940;6.834;2024-03-02T12:37:45;14.00;99.90
57026;DHT22;43961;52.940;6.834;2024-03-02T12:40:12;13.90;99.90
57026;DHT22;43961;52.940;6.834;2024-03-02T12:42:41;13.80;99.90
57026;DHT22;43961;52.940;6.834;2024-03-02T12:45:11;13.70;99.90
57026;DHT22;43961;52.940;6.834;2024-03-02T12:47:37;13.60;99.90
57026;DHT22;43961;52.940;6.834;2024-03-02T12:50:06;13.60;99.90
57026;DHT22;43961;52.940;6.834;2024-03-02T12:52:32;13.60;99.90
57026;DHT22;43961;52.940;6.834;2024-03-02T12:55:02;13.70;99.90
57026;DHT22;43961;52.940;6.834;2024-03-02T12:57:30;13.60;99.90
57026;DHT22;43961;52.940;6.834;2024-03-02T13:00:00;13.60;99.90
57026;DHT22;43961;52.940;6.834;2024-03-02T13:02:30;13.60;99.90
57026;DHT22;43961;52.940;6.834;2024-03-02T13:04:57;13.60;99.90
57026;DHT22;43961;52.940;6.834;2024-03-02T13:07:24;13.50;99.90
57026;DHT22;43961;52.940;6.834;2024-03-02T13:09:51;13.60;99.90
57026;DHT22;43961;52.940;6.834;2024-03-02T13:12:17;13.70;99.90
57026;DHT22;43961;52.940;6.834;2024-03-02T13:14:43;13.80;99.90
57026;DHT22;43961;52.940;6.834;2024-03-02T13:17:09;13.90;99.90
57026;DHT22;43961;52.940;6.834;2024-03-02T13:19:35;13.90;99.90
57026;DHT22;43961;52.940;6.834;2024-03-02T13:22:01;14.00;99.90
57026;DHT22;43961;52.940;6.834;2024-03-02T13:24:30;14.00;99.90
57026;DHT22;43961;52.940;6.834;2024-03-02T13:26:56;14.10;99.90
57026;DHT22;43961;52.940;6.834;2024-03-02T13:29:23;14.10;99.90
57026;DHT22;43961;52.940;6.834;2024-03-02T13:31:50;14.20;99.90
57026;DHT22;43961;52.940;6.834;2024-03-02T13:34:16;14.20;99.90
57026;DHT22;43961;52.940;6.834;2024-03-02T13:36:41;14.20;99.90
57026;DHT22;43961;52.940;6.834;2024-03-02T13:39:07;14.20;99.90
57026;DHT22;43961;52.940;6.834;2024-03-02T13:41:35;14.20;99.90
57026;DHT22;43961;52.940;6.834;2024-03-02T13:44:01;14.10;99.90
57026;DHT22;43961;52.940;6.834;2024-03-02T13:46:27;14.20;99.90
57026;DHT22;43961;52.940;6.834;2024-03-02T13:48:54;14.10;99.90
57026;DHT22;43961;52.940;6.834;2024-03-02T13:51:20;14.10;99.90
57026;DHT22;43961;52.940;6.834;2024-03-02T13:53:45;14.10;99.90
57026;DHT22;43961;52.940;6.834;2024-03-02T13:56:11;14.00;99.90
57026;DHT22;43961;52.940;6.834;2024-03-02T13:58:37;14.00;99.90
57026;DHT22;43961;52.940;6.834;2024-03-02T14:01:03;13.90;99.90
57026;DHT22;43961;52.940;6.834;2024-03-02T14:03:30;13.90;99.90
57026;DHT22;43961;52.940;6.834;2024-03-02T14:05:56;13.70;99.90
57026;DHT22;43961;52.940;6.834;2024-03-02T14:08:22;13.60;99.90
57026;DHT22;43961;52.940;6.834;2024-03-02T14:10:48;13.60;99.90
57026;DHT22;43961;52.940;6.834;2024-03-02T14:13:14;13.50;99.90
57026;DHT22;43961;52.940;6.834;2024-03-02T14:15:41;13.50;99.90
57026;DHT22;43961;52.940;6.834;2024-03-02T14:18:07;13.50;99.90
57026;DHT22;43961;52.940;6.834;2024-03-02T14:20:35;13.40;99.90
57026;DHT22;43961;52.940;6.834;2024-03-02T14:23:01;13.30;99.90
57026;DHT22;43961;52.940;6.834;2024-03-02T14:25:30;13.20;99.90
57026;DHT22;43961;52.940;6.834;2024-03-02T14:27:59;13.20;99.90
57026;DHT22;43961;52.940;6.834;2024-03-02T14:30:25;13.00;99.90
57026;DHT22;43961;52.940;6.834;2024-03-02T14:32:51;13.00;99.90
57026;DHT22;43961;52.940;6.834;2024-03-02T14:35:17;12.90;99.90
57026;DHT22;43961;52.940;6.834;2024-03-02T14:37:44;12.80;99.90
57026;DHT22;43961;52.940;6.834;2024-03-02T14:40:10;12.70;99.90
57026;DHT22;43961;52.940;6.834;2024-03-02T14:42:36;12.70;99.90
57026;DHT22;43961;52.940;6.834;2024-03-02T14:45:02;12.70;99.90
57026;DHT22;43961;52.940;6.834;2024-03-02T14:47:31;12.70;99.90
57026;DHT22;43961;52.940;6.834;2024-03-02T14:49:58;12.70;99.90
57026;DHT22;43961;52.940;6.834;2024-03-02T14:52:23;12.70;99.90
57026;DHT22;43961;52.940;6.834;2024-03-02T14:54:49;12.60;99.90
57026;DHT22;43961;52.940;6.834;2024-03-02T14:57:14;12.60;99.90
57026;DHT22;43961;52.940;6.834;2024-03-02T14:59:40;12.60;99.90
57026;DHT22;43961;52.940;6.834;2024-03-02T15:02:07;12.50;99.90
57026;DHT22;43961;52.940;6.834;2024-03-02T15:04:33;12.50;99.90
57026;DHT22;43961;52.940;6.834;2024-03-02T15:06:59;12.50;99.90
57026;DHT22;43961;52.940;6.834;2024-03-02T15:09:28;12.40;99.90
57026;DHT22;43961;52.940;6.834;2024-03-02T15:11:53;12.40;99.90
57026;DHT22;43961;52.940;6.834;2024-03-02T15:14:19;12.40;99.90
57026;DHT22;43961;52.940;6.834;2024-03-02T15:16:44;12.30;99.90
57026;DHT22;43961;52.940;6.834;2024-03-02T15:19:10;12.30;99.90
57026;DHT22;43961;52.940;6.834;2024-03-02T15:21:36;12.30;99.90
57026;DHT22;43961;52.940;6.834;2024-03-02T15:24:02;12.30;99.90
57026;DHT22;43961;52.940;6.834;2024-03-02T15:26:28;12.30;99.90
57026;DHT22;43961;52.940;6.834;2024-03-02T15:28:54;12.20;99.90
57026;DHT22;43961;52.940;6.834;2024-03-02T15:31:21;12.20;99.90
57026;DHT22;43961;52.940;6.834;2024-03-02T15:33:47;12.20;99.90
57026;DHT22;43961;52.940;6.834;2024-03-02T15:36:12;12.20;99.90
57026;DHT22;43961;52.940;6.834;2024-03-02T15:38:39;12.30;99.90
57026;DHT22;43961;52.940;6.834;2024-03-02T15:41:05;12.30;99.90
57026;DHT22;43961;52.940;6.834;2024-03-02T15:43:30;12.30;99.90